Time;durP1;ratioP1;P1;durP2;ratioP2;P2;SDS_P1;SDS_P2;PMS_P1;PMS_P2;Temp;Humidity;BMP_temperature;BMP_pressure;BME280_temperature;BME280_humidity;BME280_pressure;Samples;Min_cycle;Max_cycle;Signal;HPM_P1;HPM_P2
2022/08/03 00:00:22;;;;;;;3.13;0.70;;;22.60;99.90;;;;;;5024899;28;20551;-79
2022/08/03 00:02:49;;;;;;;2.10;0.75;;;22.60;99.90;;;;;;5025561;28;20453;-77
2022/08/03 00:05:16;;;;;;;2.88;0.95;;;22.60;99.90;;;;;;5023767;28;20042;-79
2022/08/03 00:07:43;;;;;;;0.90;0.80;;;22.60;99.90;;;;;;5026559;28;20049;-77
2022/08/03 00:10:11;;;;;;;1.00;0.80;;;22.50;99.90;;;;;;5019472;28;20081;-78
2022/08/03 00:12:38;;;;;;;2.28;0.82;;;22.50;99.90;;;;;;5024853;28;20519;-78
2022/08/03 00:15:05;;;;;;;2.50;1.88;;;22.50;99.90;;;;;;5024684;28;20100;-78
2022/08/03 00:17:36;;;;;;;2.10;1.40;;;22.50;99.90;;;;;;5023856;28;20471;-79
2022/08/03 00:20:18;;;;;;;3.55;1.00;;;22.40;99.90;;;;;;5022167;28;20096;-78
2022/08/03 00:22:45;;;;;;;5.07;1.05;;;22.40;99.90;;;;;;5022952;28;20077;-78
2022/08/03 00:25:12;;;;;;;1.45;1.10;;;22.30;99.90;;;;;;5025843;28;20045;-78
2022/08/03 00:27:38;;;;;;;5.03;1.23;;;22.30;99.90;;;;;;5022907;28;20077;-78
2022/08/03 00:30:07;;;;;;;1.92;0.88;;;22.30;99.90;;;;;;5025493;28;20538;-79
2022/08/03 00:32:33;;;;;;;2.15;1.05;;;22.30;99.90;;;;;;5024573;28;20133;-81
2022/08/03 00:35:00;;;;;;;2.17;1.08;;;22.30;99.90;;;;;;5024984;28;20045;-78
2022/08/03 00:37:34;;;;;;;1.67;0.73;;;22.20;99.90;;;;;;5026283;28;20442;-79
2022/08/03 00:40:11;;;;;;;1.40;0.90;;;22.20;99.90;;;;;;5024098;28;20534;-76
2022/08/03 00:42:50;;;;;;;1.00;0.90;;;22.20;99.90;;;;;;5023149;28;20080;-79
2022/08/03 00:45:17;;;;;;;1.40;0.98;;;22.20;99.90;;;;;;5018635;28;20052;-79
2022/08/03 00:47:44;;;;;;;2.70;1.15;;;22.10;99.90;;;;;;5022162;28;20041;-79
2022/08/03 00:50:12;;;;;;;1.58;1.02;;;22.10;99.90;;;;;;5018344;28;20084;-78
2022/08/03 00:52:39;;;;;;;1.30;0.93;;;22.00;99.90;;;;;;5023564;28;20045;-78
2022/08/03 00:55:06;;;;;;;3.50;1.10;;;22.00;99.90;;;;;;5020863;28;20137;-79
2022/08/03 00:57:33;;;;;;;1.58;0.98;;;22.00;99.90;;;;;;5023181;28;20049;-79
2022/08/03 01:00:00;;;;;;;2.15;1.35;;;22.00;99.90;;;;;;5021924;28;20126;-79
2022/08/03 01:02:28;;;;;;;1.02;0.95;;;21.90;99.90;;;;;;5021846;28;20124;-79
2022/08/03 01:04:55;;;;;;;1.48;1.00;;;21.90;99.90;;;;;;5023405;28;20081;-78
2022/08/03 01:07:27;;;;;;;1.48;1.38;;;21.90;99.90;;;;;;5019158;28;20077;-78
2022/08/03 01:10:09;;;;;;;2.97;0.95;;;21.90;99.90;;;;;;5021268;28;20149;-78
2022/08/03 01:13:05;;;;;;;1.30;1.08;;;21.90;99.90;;;;;;5020718;28;20053;-79
2022/08/03 01:16:16;;;;;;;2.88;1.33;;;21.90;99.90;;;;;;5023456;28;20053;-79
2022/08/03 01:18:49;;;;;;;2.17;1.30;;;21.80;99.90;;;;;;5023568;28;20078;-79
2022/08/03 01:21:31;;;;;;;1.95;1.30;;;21.80;99.90;;;;;;5021847;28;20053;-79
2022/08/03 01:24:21;;;;;;;;;;;21.70;99.90;;;;;;5016475;28;20045;-79
2022/08/03 01:27:07;;;;;;;2.70;1.63;;;21.70;99.90;;;;;;5016504;28;19922;-79
2022/08/03 01:30:04;;;;;;;1.70;1.42;;;21.70;99.90;;;;;;5020046;28;20575;-79
2022/08/03 01:32:53;;;;;;;4.05;1.80;;;21.70;99.90;;;;;;5008284;28;20523;-78
2022/08/03 01:35:42;;;;;;;3.08;1.45;;;21.70;99.90;;;;;;5022979;28;20053;-79
2022/08/03 01:38:33;;;;;;;2.15;1.75;;;21.70;99.90;;;;;;5024751;28;20228;-78
2022/08/03 01:41:06;;;;;;;2.08;1.77;;;21.70;99.90;;;;;;5021103;28;20504;-78
2022/08/03 01:43:34;;;;;;;4.13;1.90;;;21.60;99.90;;;;;;5026789;28;20479;-78
2022/08/03 01:46:22;;;;;;;4.63;1.77;;;21.60;99.90;;;;;;5022511;28;20500;-79
2022/08/03 01:48:49;;;;;;;3.40;1.95;;;21.60;99.90;;;;;;5025661;28;20084;-79
2022/08/03 01:51:18;;;;;;;2.95;1.67;;;21.60;99.90;;;;;;5027228;28;20065;-79
2022/08/03 01:53:47;;;;;;;2.58;1.50;;;21.50;99.90;;;;;;5023192;28;20084;-78
2022/08/03 01:56:16;;;;;;;4.28;2.00;;;21.50;99.90;;;;;;5026828;28;20788;-78
2022/08/03 01:58:48;;;;;;;4.85;1.40;;;21.50;99.90;;;;;;5026552;28;20046;-79
2022/08/03 02:01:15;;;;;;;2.88;1.55;;;21.50;99.90;;;;;;5018408;28;20121;-78
2022/08/03 02:03:43;;;;;;;2.72;1.75;;;;;;;;;;5020986;28;20046;-79
2022/08/03 02:06:30;;;;;;;6.38;1.80;;;21.50;99.90;;;;;;5023097;28;20046;-79
2022/08/03 02:09:20;;;;;;;2.17;1.83;;;21.40;99.90;;;;;;5026615;28;20053;-78
2022/08/03 02:11:49;;;;;;;5.00;1.70;;;21.40;99.90;;;;;;5017658;28;20093;-78
2022/08/03 02:14:18;;;;;;;3.65;1.70;;;21.40;99.90;;;;;;5026256;28;20083;-78
2022/08/03 02:16:45;;;;;;;5.18;1.85;;;21.30;99.90;;;;;;5026330;28;20089;-79
2022/08/03 02:19:13;;;;;;;2.90;1.60;;;21.20;99.90;;;;;;5024723;28;20504;-78
2022/08/03 02:21:42;;;;;;;2.55;1.55;;;21.20;99.90;;;;;;5028330;28;20069;-77
2022/08/03 02:24:28;;;;;;;2.33;1.70;;;21.20;99.90;;;;;;5027346;28;20049;-79
2022/08/03 02:26:56;;;;;;;2.35;1.45;;;21.20;99.90;;;;;;5016738;28;20077;-79
2022/08/03 02:29:26;;;;;;;3.72;1.90;;;21.20;99.90;;;;;;5019264;28;20550;-78
2022/08/03 02:32:09;;;;;;;2.15;1.58;;;21.20;99.90;;;;;;5024225;28;20120;-79
2022/08/03 02:34:38;;;;;;;2.00;1.80;;;21.20;99.90;;;;;;5020302;28;20081;-78
2022/08/03 02:37:07;;;;;;;2.42;1.30;;;21.10;99.90;;;;;;5023877;28;20085;-78
2022/08/03 02:39:35;;;;;;;3.30;1.63;;;21.10;99.90;;;;;;5023101;28;20156;-77
2022/08/03 02:42:04;;;;;;;2.78;2.03;;;21.10;99.90;;;;;;5022277;28;20498;-79
2022/08/03 02:44:32;;;;;;;2.28;1.67;;;21.10;99.90;;;;;;5022888;28;20140;-78
2022/08/03 02:47:06;;;;;;;6.95;1.98;;;21.10;99.90;;;;;;5021995;28;20046;-78
2022/08/03 02:49:34;;;;;;;3.92;1.60;;;21.10;99.90;;;;;;5030967;28;20046;-80
2022/08/03 02:52:20;;;;;;;2.63;1.70;;;21.10;99.90;;;;;;5028399;28;20053;-79
2022/08/03 02:54:49;;;;;;;1.77;1.40;;;21.00;99.90;;;;;;5023530;28;20088;-79
2022/08/03 02:57:18;;;;;;;2.78;1.80;;;21.00;99.90;;;;;;5026029;28;20049;-77
2022/08/03 02:59:46;;;;;;;2.42;1.65;;;21.00;99.90;;;;;;5024994;28;20054;-78
2022/08/03 03:02:15;;;;;;;4.22;1.60;;;20.90;99.90;;;;;;5024042;28;20087;-78
2022/08/03 03:04:43;;;;;;;2.70;1.42;;;20.90;99.90;;;;;;5023677;28;20053;-79
2022/08/03 03:07:32;;;;;;;5.45;1.85;;;20.90;99.90;;;;;;5017517;28;20423;-78
2022/08/03 03:10:17;;;;;;;2.85;1.50;;;20.90;99.90;;;;;;5026467;28;20041;-79
2022/08/03 03:12:45;;;;;;;3.03;1.80;;;20.90;99.90;;;;;;5021389;28;20125;-78
2022/08/03 03:15:12;;;;;;;1.48;1.33;;;20.80;99.90;;;;;;5025300;28;20045;-80
2022/08/03 03:17:40;;;;;;;3.05;1.50;;;20.80;99.90;;;;;;5019540;28;20096;-79
2022/08/03 03:20:07;;;;;;;1.75;1.33;;;20.70;99.90;;;;;;5024524;28;20125;-79
2022/08/03 03:22:35;;;;;;;1.80;1.40;;;20.70;99.90;;;;;;5023273;28;20085;-79
2022/08/03 03:25:04;;;;;;;3.25;1.48;;;20.70;99.90;;;;;;5023554;28;20128;-79
2022/08/03 03:27:32;;;;;;;5.25;1.50;;;20.70;99.90;;;;;;5021650;28;20088;-78
2022/08/03 03:30:00;;;;;;;3.33;1.30;;;20.60;99.90;;;;;;5020279;28;20045;-79
2022/08/03 03:32:28;;;;;;;2.92;1.77;;;20.70;99.90;;;;;;5024098;28;20048;-79
2022/08/03 03:34:58;;;;;;;6.70;1.80;;;20.70;99.90;;;;;;5021742;28;20093;-79
2022/08/03 03:37:25;;;;;;;5.20;1.30;;;20.70;99.90;;;;;;5017669;28;20053;-77
2022/08/03 03:39:53;;;;;;;4.22;1.38;;;20.60;99.90;;;;;;5022408;28;20069;-78
2022/08/03 03:42:20;;;;;;;2.47;1.55;;;20.60;99.90;;;;;;5026226;28;20081;-78
2022/08/03 03:44:47;;;;;;;3.50;1.77;;;20.60;99.90;;;;;;5023172;28;20080;-78
2022/08/03 03:47:14;;;;;;;3.55;1.58;;;20.60;99.90;;;;;;5022563;28;20081;-78
2022/08/03 03:49:42;;;;;;;2.35;1.45;;;20.60;99.90;;;;;;5019953;28;20072;-79
2022/08/03 03:52:09;;;;;;;5.78;1.55;;;20.60;99.90;;;;;;5024274;28;20042;-78
2022/08/03 03:54:44;;;;;;;2.75;1.45;;;20.60;99.90;;;;;;5020832;28;20049;-79
2022/08/03 03:57:10;;;;;;;3.38;1.50;;;20.60;99.90;;;;;;5023207;28;20630;-79
2022/08/03 03:59:42;;;;;;;1.90;1.45;;;20.60;99.90;;;;;;5023751;28;20049;-79
2022/08/03 04:02:11;;;;;;;3.10;1.33;;;20.50;99.90;;;;;;5021502;28;20513;-77
2022/08/03 04:13:09;;;;;;;2.70;1.67;;;20.40;99.90;;;;;;5021109;28;20535;-76
2022/08/03 04:15:38;;;;;;;6.22;1.80;;;20.40;99.90;;;;;;5022127;28;20137;-78
2022/08/03 04:18:08;;;;;;;2.38;1.20;;;20.50;99.90;;;;;;5014277;28;20092;-78
2022/08/03 04:20:37;;;;;;;2.30;1.60;;;20.40;99.90;;;;;;5024212;28;20077;-78
2022/08/03 04:23:06;;;;;;;1.88;1.20;;;20.50;99.90;;;;;;5023154;28;20049;-77
2022/08/03 04:25:42;;;;;;;3.60;1.58;;;20.50;99.90;;;;;;5019419;28;20067;-78
2022/08/03 04:28:10;;;;;;;3.20;1.58;;;20.50;99.90;;;;;;5024269;28;20045;-76
2022/08/03 04:30:58;;;;;;;3.22;2.13;;;20.50;99.90;;;;;;5019900;28;20052;-79
2022/08/03 04:33:27;;;;;;;2.92;1.30;;;20.50;99.90;;;;;;5023079;28;20050;-78
2022/08/03 04:35:58;;;;;;;1.92;1.70;;;20.40;99.90;;;;;;5024581;28;20064;-78
2022/08/03 04:38:31;;;;;;;2.60;1.70;;;20.40;99.90;;;;;;5019028;28;20049;-79
2022/08/03 04:40:58;;;;;;;1.98;1.40;;;20.40;99.90;;;;;;5023559;28;20426;-78
2022/08/03 04:43:26;;;;;;;2.95;1.85;;;20.30;99.90;;;;;;5022583;28;20144;-78
2022/08/03 04:45:54;;;;;;;2.90;1.40;;;20.30;99.90;;;;;;5021688;28;20128;-78
2022/08/03 04:48:21;;;;;;;2.22;1.35;;;20.30;99.90;;;;;;5017974;28;20085;-78
2022/08/03 04:50:48;;;;;;;2.25;1.40;;;20.30;99.90;;;;;;5024185;28;20404;-78
2022/08/03 04:53:15;;;;;;;2.65;1.60;;;20.30;99.90;;;;;;5023842;28;20105;-78
2022/08/03 04:55:42;;;;;;;3.42;1.52;;;20.40;99.90;;;;;;5022977;28;20128;-77
2022/08/03 04:58:09;;;;;;;2.70;1.50;;;20.30;99.90;;;;;;5024141;28;20088;-79
2022/08/03 05:00:36;;;;;;;1.50;1.25;;;20.40;99.90;;;;;;5021555;28;20085;-77
2022/08/03 05:03:03;;;;;;;1.50;1.40;;;20.50;99.90;;;;;;5024663;28;20083;-78
2022/08/03 05:05:45;;;;;;;4.28;1.58;;;20.50;99.90;;;;;;5024966;28;20053;-79
2022/08/03 05:08:16;;;;;;;2.10;1.10;;;20.60;99.90;;;;;;5018269;28;20049;-80
2022/08/03 05:10:46;;;;;;;4.30;1.83;;;20.70;99.90;;;;;;5023367;28;20056;-79
2022/08/03 05:13:13;;;;;;;3.95;1.50;;;20.80;99.90;;;;;;5023116;28;20095;-77
2022/08/03 05:15:40;;;;;;;2.30;1.30;;;20.90;99.90;;;;;;5024620;28;20119;-79
2022/08/03 05:18:09;;;;;;;3.70;1.73;;;21.00;99.90;;;;;;5018976;28;20049;-78
2022/08/03 05:20:40;;;;;;;5.82;1.80;;;21.10;99.90;;;;;;5023379;28;20049;-78
2022/08/03 05:23:06;;;;;;;3.67;1.52;;;21.10;99.90;;;;;;5023859;28;20402;-77
2022/08/03 05:25:33;;;;;;;3.25;1.95;;;21.20;99.90;;;;;;5022196;28;20048;-78
2022/08/03 05:28:00;;;;;;;2.03;1.65;;;21.30;99.90;;;;;;5020647;28;20137;-79
2022/08/03 05:30:27;;;;;;;1.65;1.45;;;21.30;99.90;;;;;;5016763;28;20074;-77
2022/08/03 05:33:00;;;;;;;4.03;1.50;;;21.40;99.90;;;;;;5023782;28;20045;-77
2022/08/03 05:35:28;;;;;;;1.50;1.10;;;21.40;99.90;;;;;;5023906;28;20122;-78
2022/08/03 05:38:14;;;;;;;4.50;1.40;;;21.40;99.90;;;;;;5023072;28;20478;-79
2022/08/03 05:40:54;;;;;;;5.05;1.63;;;21.40;99.90;;;;;;5018374;28;20089;-78
2022/08/03 05:43:40;;;;;;;2.30;1.25;;;21.50;99.90;;;;;;5021435;28;20061;-78
2022/08/03 05:46:07;;;;;;;1.95;1.40;;;21.50;99.90;;;;;;5020487;28;20132;-77
2022/08/03 05:48:38;;;;;;;1.27;1.13;;;21.50;99.90;;;;;;5021971;28;20049;-78
2022/08/03 05:51:06;;;;;;;1.60;1.45;;;21.60;99.90;;;;;;5021621;28;20056;-77
2022/08/03 05:53:33;;;;;;;4.30;1.42;;;21.60;99.90;;;;;;5020779;28;20046;-79
2022/08/03 05:56:00;;;;;;;2.00;1.70;;;21.60;99.90;;;;;;5016701;28;20053;-78
2022/08/03 05:58:40;;;;;;;4.35;2.20;;;21.70;99.90;;;;;;5021673;28;20053;-77
2022/08/03 06:01:07;;;;;;;2.83;1.75;;;21.70;99.90;;;;;;5024497;28;20468;-78
2022/08/03 06:03:34;;;;;;;1.98;1.30;;;21.70;99.90;;;;;;5017228;28;20053;-77
2022/08/03 06:06:01;;;;;;;1.73;1.35;;;21.80;99.90;;;;;;5022731;28;20133;-78
2022/08/03 06:08:28;;;;;;;4.00;1.50;;;21.80;99.90;;;;;;5021416;28;20487;-78
2022/08/03 06:10:54;;;;;;;4.15;1.10;;;21.90;99.90;;;;;;5022302;28;20546;-79
2022/08/03 06:13:21;;;;;;;2.28;1.45;;;21.90;99.90;;;;;;5023324;28;20131;-78
2022/08/03 06:15:48;;;;;;;1.75;1.27;;;21.90;99.90;;;;;;5020672;28;20128;-79
2022/08/03 06:18:14;;;;;;;1.65;1.40;;;21.90;99.90;;;;;;5009513;28;20058;-80
2022/08/03 06:20:41;;;;;;;2.00;1.45;;;21.90;99.90;;;;;;5024099;28;20049;-75
2022/08/03 06:23:08;;;;;;;4.90;1.38;;;22.00;99.90;;;;;;5023471;28;20049;-75
2022/08/03 06:25:43;;;;;;;2.28;1.58;;;22.00;99.90;;;;;;5022950;28;20050;-75
2022/08/03 06:28:12;;;;;;;5.03;1.50;;;22.00;99.90;;;;;;5019797;28;20129;-75
2022/08/03 06:30:59;;;;;;;6.38;1.30;;;22.00;99.90;;;;;;5021096;28;20077;-75
2022/08/03 06:33:27;;;;;;;3.33;1.40;;;22.10;99.90;;;;;;5025569;28;20092;-75
2022/08/03 06:36:13;;;;;;;6.28;1.98;;;22.10;99.90;;;;;;5019469;28;20050;-75
2022/08/03 06:38:40;;;;;;;4.45;1.77;;;22.10;99.90;;;;;;5025270;28;20103;-75
2022/08/03 06:41:07;;;;;;;2.30;1.42;;;22.20;99.90;;;;;;5024075;28;20089;-75
2022/08/03 06:43:36;;;;;;;8.95;2.10;;;22.20;99.90;;;;;;5024298;28;20124;-75
2022/08/03 06:46:04;;;;;;;1.80;1.58;;;22.10;99.90;;;;;;5026102;28;20081;-75
2022/08/03 06:48:31;;;;;;;2.40;1.60;;;22.20;99.90;;;;;;5018765;28;20419;-76
2022/08/03 06:50:58;;;;;;;4.75;1.85;;;22.30;99.90;;;;;;5022656;28;20065;-76
2022/08/03 06:53:25;;;;;;;5.50;1.58;;;22.30;99.90;;;;;;5021338;28;20554;-76
2022/08/03 06:55:51;;;;;;;4.10;1.80;;;22.30;99.90;;;;;;5023698;28;20566;-76
2022/08/03 06:58:21;;;;;;;4.50;1.65;;;22.30;99.90;;;;;;5025119;28;20503;-76
2022/08/03 07:00:48;;;;;;;2.67;1.50;;;22.30;99.90;;;;;;5022717;28;20077;-76
2022/08/03 07:03:14;;;;;;;2.75;1.80;;;22.40;99.90;;;;;;5025312;28;20053;-76
2022/08/03 07:05:42;;;;;;;1.33;1.17;;;22.40;99.90;;;;;;5023563;28;20140;-75
2022/08/03 07:08:09;;;;;;;7.93;1.40;;;22.50;99.90;;;;;;5022334;28;20101;-75
2022/08/03 07:10:36;;;;;;;3.30;1.48;;;22.50;99.90;;;;;;5024943;28;20045;-76
2022/08/03 07:13:03;;;;;;;3.10;1.58;;;22.50;99.90;;;;;;5022293;28;20575;-76
2022/08/03 07:15:30;;;;;;;9.15;2.55;;;22.60;99.90;;;;;;5018662;28;20092;-76
2022/08/03 07:18:17;;;;;;;2.53;1.60;;;22.70;99.90;;;;;;5021988;28;20079;-75
2022/08/03 07:20:55;;;;;;;1.58;1.20;;;;;;;;;;5023482;28;20583;-76
2022/08/03 07:23:22;;;;;;;4.35;1.70;;;22.70;99.90;;;;;;5024500;28;20046;-76
2022/08/03 07:25:49;;;;;;;3.97;1.75;;;22.80;99.90;;;;;;5020240;28;20077;-76
2022/08/03 07:28:16;;;;;;;2.90;1.55;;;22.80;99.90;;;;;;5021488;28;20523;-77
2022/08/03 07:30:43;;;;;;;3.63;1.63;;;22.90;99.90;;;;;;5022731;28;20132;-76
2022/08/03 07:33:10;;;;;;;2.30;1.50;;;23.00;99.90;;;;;;5022473;28;20076;-76
2022/08/03 07:35:37;;;;;;;6.05;1.77;;;23.00;99.90;;;;;;5023063;28;20084;-76
2022/08/03 07:38:04;;;;;;;1.80;1.50;;;23.00;99.90;;;;;;5024600;28;20328;-76
2022/08/03 07:40:30;;;;;;;3.28;1.33;;;23.10;99.90;;;;;;5021026;28;20050;-76
2022/08/03 07:42:59;;;;;;;4.22;1.77;;;23.10;99.90;;;;;;5021934;28;20046;-76
2022/08/03 07:45:25;;;;;;;4.40;1.60;;;23.20;99.90;;;;;;5023320;28;20045;-76
2022/08/03 07:47:52;;;;;;;4.32;1.45;;;23.20;99.90;;;;;;5023013;28;20052;-76
2022/08/03 07:50:20;;;;;;;2.90;1.63;;;23.30;99.90;;;;;;5022310;28;20558;-75
2022/08/03 07:52:48;;;;;;;2.58;1.80;;;23.30;99.90;;;;;;5024772;28;20055;-75
2022/08/03 07:55:16;;;;;;;1.58;1.30;;;23.40;99.90;;;;;;5017206;28;20093;-76
2022/08/03 07:57:43;;;;;;;3.92;1.70;;;23.40;99.90;;;;;;5021884;28;20132;-78
2022/08/03 08:00:15;;;;;;;3.38;1.55;;;23.40;99.90;;;;;;5022859;28;20128;-75
2022/08/03 08:02:43;;;;;;;2.17;1.23;;;23.50;99.90;;;;;;5021687;28;20081;-75
2022/08/03 08:05:11;;;;;;;3.00;1.60;;;23.60;99.90;;;;;;5017669;28;20137;-75
2022/08/03 08:07:39;;;;;;;8.63;1.65;;;23.60;99.90;;;;;;5023430;28;20088;-75
2022/08/03 08:10:08;;;;;;;4.28;1.42;;;23.70;99.90;;;;;;5022599;28;20476;-75
2022/08/03 08:12:36;;;;;;;3.38;1.50;;;23.60;99.90;;;;;;5021641;28;20057;-75
2022/08/03 08:15:04;;;;;;;4.68;1.80;;;23.70;99.90;;;;;;5020477;28;20077;-75
2022/08/03 08:17:30;;;;;;;1.63;1.45;;;23.70;99.90;;;;;;5024052;28;20104;-75
2022/08/03 08:19:57;;;;;;;3.00;1.48;;;23.80;99.90;;;;;;5009386;28;20145;-75
2022/08/03 08:22:24;;;;;;;3.90;1.48;;;23.80;99.90;;;;;;5018193;28;20056;-75
2022/08/03 08:24:59;;;;;;;3.78;1.30;;;23.90;99.90;;;;;;5019910;28;20050;-75
2022/08/03 08:27:27;;;;;;;5.43;1.77;;;23.90;99.90;;;;;;5015759;28;20060;-75
2022/08/03 08:30:17;;;;;;;3.90;1.65;;;24.00;99.90;;;;;;5010659;28;20046;-76
2022/08/03 08:32:45;;;;;;;2.33;1.42;;;24.10;99.90;;;;;;5019854;28;20069;-75
2022/08/03 08:35:12;;;;;;;3.92;1.30;;;24.20;99.90;;;;;;5020678;28;20132;-76
2022/08/03 08:37:40;;;;;;;6.05;1.60;;;24.30;99.90;;;;;;5019174;28;20041;-74
2022/08/03 08:40:08;;;;;;;2.33;1.42;;;24.30;99.90;;;;;;5023687;28;20053;-74
2022/08/03 08:42:39;;;;;;;10.80;2.45;;;24.40;99.90;;;;;;5016937;28;20081;-74
2022/08/03 08:45:23;;;;;;;1.67;1.42;;;24.50;99.90;;;;;;5022566;28;20132;-75
2022/08/03 08:47:50;;;;;;;2.28;1.30;;;24.60;99.90;;;;;;5024872;28;20415;-74
2022/08/03 08:50:22;;;;;;;2.53;1.58;;;24.50;99.90;;;;;;5018647;28;20042;-75
2022/08/03 08:52:55;;;;;;;3.83;1.67;;;24.70;99.90;;;;;;5023673;28;20049;-75
2022/08/03 08:55:23;;;;;;;3.00;1.85;;;24.70;99.90;;;;;;5018941;28;20132;-74
2022/08/03 08:57:56;;;;;;;6.93;1.70;;;24.70;99.90;;;;;;5021020;28;20077;-74
2022/08/03 09:00:22;;;;;;;2.90;1.70;;;24.80;99.90;;;;;;5020154;28;20054;-75
2022/08/03 09:02:49;;;;;;;1.83;1.45;;;24.80;99.90;;;;;;5022109;28;20136;-75
2022/08/03 09:05:18;;;;;;;4.18;1.55;;;24.80;99.90;;;;;;5019925;28;20077;-75
2022/08/03 09:08:01;;;;;;;3.95;1.58;;;;;;;;;;5022774;28;20045;-75
2022/08/03 09:10:28;;;;;;;4.72;2.15;;;25.00;99.90;;;;;;5016167;28;20078;-74
2022/08/03 09:12:55;;;;;;;3.17;1.60;;;25.00;99.90;;;;;;5020907;28;20081;-75
2022/08/03 09:15:26;;;;;;;2.08;1.50;;;25.00;99.90;;;;;;5018537;28;20064;-75
2022/08/03 09:17:55;;;;;;;2.83;2.00;;;25.10;99.90;;;;;;5021304;28;20049;-75
2022/08/03 09:20:23;;;;;;;4.65;1.70;;;25.20;99.90;;;;;;5020313;28;20049;-75
2022/08/03 09:23:08;;;;;;;3.60;1.35;;;25.30;99.90;;;;;;5008257;28;20508;-75
2022/08/03 09:25:57;;;;;;;5.13;1.60;;;25.40;99.90;;;;;;5019326;28;20061;-75
2022/08/03 09:28:33;;;;;;;3.92;1.80;;;25.50;99.90;;;;;;5014608;28;20397;-75
2022/08/03 09:31:35;;;;;;;4.90;1.70;;;25.60;99.90;;;;;;5017381;28;20045;-75
2022/08/03 09:34:04;;;;;;;5.35;2.00;;;25.50;99.90;;;;;;5019613;28;20044;-75
2022/08/03 09:36:42;;;;;;;4.60;1.90;;;25.60;99.90;;;;;;5012923;28;20137;-76
2022/08/03 09:39:11;;;;;;;4.03;1.70;;;25.60;99.90;;;;;;5033696;28;20081;-76
2022/08/03 09:41:40;;;;;;;4.18;1.60;;;25.70;99.90;;;;;;5019952;28;20092;-74
2022/08/03 09:44:07;;;;;;;3.70;1.83;;;25.70;99.90;;;;;;5020352;28;20080;-74
2022/08/03 09:46:57;;;;;;;3.05;1.98;;;25.70;99.90;;;;;;5019670;28;20054;-74
2022/08/03 09:49:24;;;;;;;3.22;1.75;;;25.90;99.90;;;;;;5022107;28;20073;-74
2022/08/03 09:51:52;;;;;;;9.38;2.20;;;25.90;99.90;;;;;;5022236;28;20069;-74
2022/08/03 09:54:40;;;;;;;4.70;2.05;;;25.90;99.90;;;;;;5019806;28;20707;-74
2022/08/03 09:57:07;;;;;;;7.88;2.25;;;25.90;99.90;;;;;;5024525;28;20141;-75
2022/08/03 09:59:34;;;;;;;3.83;1.60;;;26.00;99.90;;;;;;5026615;28;20555;-74
2022/08/03 10:02:04;;;;;;;3.30;1.58;;;26.10;99.90;;;;;;5025378;28;20084;-75
2022/08/03 10:04:31;;;;;;;4.82;1.95;;;26.10;99.90;;;;;;5020496;28;20472;-74
2022/08/03 10:07:09;;;;;;;3.95;2.03;;;26.20;99.90;;;;;;5019247;28;20137;-74
2022/08/03 10:09:37;;;;;;;3.78;2.10;;;26.40;99.90;;;;;;5019738;28;20519;-75
2022/08/03 10:12:11;;;;;;;4.32;1.85;;;26.40;99.90;;;;;;5026201;28;20057;-75
2022/08/03 10:14:40;;;;;;;2.60;1.83;;;26.40;99.90;;;;;;5026047;28;20128;-74
2022/08/03 10:17:08;;;;;;;6.85;1.92;;;26.50;99.90;;;;;;5023190;28;20057;-75
2022/08/03 10:19:35;;;;;;;4.50;1.98;;;26.90;99.90;;;;;;5024138;28;20053;-75
2022/08/03 10:22:06;;;;;;;5.78;1.63;;;26.90;99.90;;;;;;5013562;28;20144;-75
2022/08/03 10:24:37;;;;;;;2.78;1.98;;;26.80;99.90;;;;;;5025569;28;20474;-75
2022/08/03 10:27:06;;;;;;;4.32;1.95;;;26.80;99.90;;;;;;5021768;28;20048;-75
2022/08/03 10:29:38;;;;;;;3.90;2.30;;;26.90;99.90;;;;;;5025733;28;20136;-75
2022/08/03 10:32:21;;;;;;;2.42;1.80;;;26.90;99.90;;;;;;5025461;28;20046;-74
2022/08/03 10:34:51;;;;;;;3.58;1.70;;;27.20;99.90;;;;;;5021491;28;20041;-74
2022/08/03 10:37:29;;;;;;;4.03;1.92;;;27.30;99.90;;;;;;5023018;28;20149;-75
2022/08/03 10:39:58;;;;;;;5.25;1.65;;;27.30;99.90;;;;;;5014609;28;20091;-75
2022/08/03 10:42:30;;;;;;;3.67;1.60;;;27.30;99.90;;;;;;5024567;28;20050;-75
2022/08/03 10:45:05;;;;;;;4.93;1.95;;;27.30;99.90;;;;;;5017525;28;20081;-74
2022/08/03 10:47:34;;;;;;;3.33;1.70;;;27.30;99.90;;;;;;5037601;28;20103;-74
2022/08/03 10:50:01;;;;;;;6.63;2.17;;;27.30;99.90;;;;;;5024223;28;20129;-75
2022/08/03 10:52:28;;;;;;;3.15;1.70;;;27.30;99.90;;;;;;5022424;28;20129;-74
2022/08/03 10:57:53;;;;;;;6.03;1.83;;;27.30;99.90;;;;;;5025482;28;20057;-74
2022/08/03 11:00:26;;;;;;;9.10;2.17;;;27.60;99.90;;;;;;5021955;28;20116;-74
2022/08/03 11:03:13;;;;;;;3.85;1.73;;;27.70;99.90;;;;;;5019045;28;20057;-74
2022/08/03 11:05:41;;;;;;;4.05;1.80;;;27.90;99.90;;;;;;5023217;28;20045;-74
2022/08/03 11:08:27;;;;;;;7.00;2.10;;;27.90;99.90;;;;;;5025144;28;20080;-74
2022/08/03 11:10:57;;;;;;;1.58;1.40;;;27.90;99.90;;;;;;5023243;28;20081;-75
2022/08/03 11:13:27;;;;;;;1.85;1.55;;;27.80;99.90;;;;;;5022340;28;20050;-74
2022/08/03 11:15:55;;;;;;;3.30;1.80;;;27.80;99.90;;;;;;5024932;28;20490;-74
2022/08/03 11:18:29;;;;;;;4.35;2.08;;;28.00;99.90;;;;;;5018470;28;20069;-74
2022/08/03 11:20:58;;;;;;;3.03;1.55;;;28.10;99.90;;;;;;5023370;28;20081;-74
2022/08/03 11:23:44;;;;;;;3.80;1.75;;;28.10;99.90;;;;;;5019909;28;20129;-74
2022/08/03 11:26:31;;;;;;;3.80;1.65;;;28.40;99.90;;;;;;5023152;28;20045;-74
2022/08/03 11:29:28;;;;;;;3.58;1.60;;;28.40;99.90;;;;;;5022320;28;20096;-74
2022/08/03 11:31:55;;;;;;;3.85;2.03;;;28.50;99.90;;;;;;5014262;28;20042;-74
2022/08/03 11:34:23;;;;;;;3.10;1.67;;;28.40;99.90;;;;;;5023071;28;20049;-74
2022/08/03 11:37:19;;;;;;;2.45;1.70;;;28.50;99.90;;;;;;5023322;28;20057;-75
2022/08/03 11:39:48;;;;;;;3.72;1.80;;;28.40;99.90;;;;;;5022854;28;20106;-74
2022/08/03 11:42:21;;;;;;;3.80;1.83;;;28.50;99.90;;;;;;5021764;28;20128;-75
2022/08/03 11:44:51;;;;;;;2.08;1.45;;;28.40;99.90;;;;;;5019680;28;20492;-75
2022/08/03 11:47:19;;;;;;;1.70;1.23;;;28.40;99.90;;;;;;5021496;28;20041;-75
2022/08/03 11:49:48;;;;;;;1.98;1.55;;;28.40;99.90;;;;;;5024209;28;20542;-75
2022/08/03 11:52:16;;;;;;;4.88;1.80;;;28.40;99.90;;;;;;5017905;28;20045;-75
2022/08/03 11:54:43;;;;;;;2.38;1.67;;;28.40;99.90;;;;;;5024124;28;20045;-75
2022/08/03 11:57:10;;;;;;;3.75;1.63;;;28.40;99.90;;;;;;5022826;28;20136;-75
2022/08/03 11:59:37;;;;;;;3.08;1.20;;;28.40;99.90;;;;;;5022298;28;20428;-75
2022/08/03 12:02:15;;;;;;;1.42;1.30;;;28.40;99.90;;;;;;5024248;28;20132;-74
2022/08/03 12:05:00;;;;;;;3.53;1.52;;;28.50;99.90;;;;;;5020181;28;20065;-74
2022/08/03 12:07:29;;;;;;;2.78;1.50;;;28.50;99.90;;;;;;5018390;28;20053;-75
2022/08/03 12:10:15;;;;;;;3.90;1.25;;;28.70;99.90;;;;;;5017704;28;20045;-75
2022/08/03 12:12:42;;;;;;;1.38;1.00;;;28.90;99.90;;;;;;5023496;28;20141;-75
2022/08/03 12:15:12;;;;;;;;;;;29.30;99.90;;;;;;5023624;28;20563;-75
2022/08/03 12:17:40;;;;;;;3.95;1.23;;;29.50;99.90;;;;;;5020956;28;19921;-74
2022/08/03 12:20:09;;;;;;;3.33;1.23;;;29.50;99.90;;;;;;5024025;28;20053;-75
2022/08/03 12:22:39;;;;;;;0.98;0.88;;;29.40;99.90;;;;;;5021600;28;20103;-75
2022/08/03 12:25:07;;;;;;;1.33;1.23;;;29.50;99.90;;;;;;5022405;28;20492;-74
2022/08/03 12:27:35;;;;;;;1.42;1.10;;;29.50;99.90;;;;;;5023192;28;20052;-75
2022/08/03 12:30:03;;;;;;;1.83;1.20;;;29.40;99.90;;;;;;5020769;28;20060;-75
2022/08/03 12:32:30;;;;;;;2.72;1.00;;;29.40;99.90;;;;;;5017419;28;20081;-75
2022/08/03 12:34:59;;;;;;;2.72;1.08;;;29.40;99.90;;;;;;5021861;28;20069;-74
2022/08/03 12:37:28;;;;;;;0.60;0.60;;;29.50;99.90;;;;;;5022737;28;20058;-74
2022/08/03 12:40:00;;;;;;;0.82;0.57;;;29.50;99.90;;;;;;5021062;28;20049;-75
2022/08/03 12:42:32;;;;;;;3.03;0.70;;;29.50;99.90;;;;;;5018911;28;20454;-76
2022/08/03 12:45:18;;;;;;;1.73;1.20;;;29.60;99.90;;;;;;5021575;28;20129;-77
2022/08/03 12:48:08;;;;;;;1.02;0.90;;;29.50;99.90;;;;;;5016041;28;20080;-75
2022/08/03 12:50:36;;;;;;;1.30;1.00;;;29.40;99.90;;;;;;5017274;28;20066;-75
2022/08/03 12:53:06;;;;;;;1.33;0.90;;;29.30;99.90;;;;;;5020977;28;20073;-75
2022/08/03 12:55:37;;;;;;;1.63;0.90;;;29.30;99.90;;;;;;5024943;28;20132;-74
2022/08/03 12:58:34;;;;;;;2.47;1.10;;;29.30;99.90;;;;;;5023151;28;20507;-76
2022/08/03 13:01:03;;;;;;;1.02;0.75;;;29.20;99.90;;;;;;5014237;28;20136;-75
2022/08/03 13:03:44;;;;;;;2.22;0.90;;;29.20;99.90;;;;;;5022556;28;20049;-75
2022/08/03 13:06:20;;;;;;;;;;;29.10;99.90;;;;;;5021277;28;20133;-75
2022/08/03 13:08:48;;;;;;;1.13;0.80;;;29.10;99.90;;;;;;5021146;28;19922;-76
2022/08/03 13:11:19;;;;;;;1.60;0.80;;;29.00;99.90;;;;;;5023650;28;20084;-75
2022/08/03 13:13:47;;;;;;;1.48;0.63;;;29.10;99.90;;;;;;5022185;28;20559;-76
2022/08/03 13:16:14;;;;;;;0.90;0.70;;;29.20;99.90;;;;;;5022416;28;20081;-75
2022/08/03 13:18:47;;;;;;;1.45;0.75;;;29.20;99.90;;;;;;5023788;28;20050;-75
2022/08/03 13:21:15;;;;;;;1.10;0.82;;;29.40;99.90;;;;;;5018112;28;20104;-75